Time;durP1;ratioP1;P1;durP2;ratioP2;P2;SDS_P1;SDS_P2;PMS_P1;PMS_P2;Temp;Humidity;BMP_temperature;BMP_pressure;BME280_temperature;BME280_humidity;BME280_pressure;Samples;Min_cycle;Max_cycle;Signal;HPM_P1;HPM_P2
2023/08/21 00:00:13;;;;;;;;;;;;;;;;;;1890956;28;7021;-69
2023/08/21 00:01:10;;;;;;;;;;;;;;;;;;1890362;28;7009;-68
2023/08/21 00:02:07;;;;;;;;;;;;;;;;;;1890524;28;7088;-68
2023/08/21 00:03:06;;;;;;;;;;;;;;;;;;1889553;28;7005;-69
2023/08/21 00:04:03;;;;;;;;;;;;;;;;;;1889512;28;7022;-68
2023/08/21 00:05:01;;;;;;;;;;;;;;;;;;1890955;28;7077;-69
2023/08/21 00:05:58;;;;;;;;;;;;;;;;;;1890408;28;7082;-69
2023/08/21 00:06:56;;;;;;;;;;;;;;;;;;1889988;28;7006;-69
2023/08/21 00:07:53;;;;;;;;;;;;;;;;;;1889695;28;7005;-69
2023/08/21 00:08:51;;;;;;;;;;;;;;;;;;1883248;28;7337;-68
2023/08/21 00:09:48;;;;;;;;;;;;;;;;;;1882989;28;7089;-68
2023/08/21 00:10:46;;;;;;;;;;;;;;;;;;1881922;28;7093;-68
2023/08/21 00:11:43;;;;;;;;;;;;;;;;;;1875133;28;7010;-70
2023/08/21 00:12:40;;;;;;;;;;;;;;;;;;1881566;28;7089;-70
2023/08/21 00:13:38;;;;;;;;;;;;;;;;;;1890059;28;7070;-68
2023/08/21 00:14:35;;;;;;;;;;;;;;;;;;1890747;28;7013;-69
2023/08/21 00:15:33;;;;;;;;;;;;;;;;;;1890375;28;7680;-68
2023/08/21 00:16:30;;;;;;;;;;;;;;;;;;1888910;28;7009;-69
2023/08/21 00:17:28;;;;;;;;;;;;;;;;;;1882971;28;7014;-68
2023/08/21 00:18:25;;;;;;;;;;;;;;;;;;1881670;28;7153;-69
2023/08/21 00:19:23;;;;;;;;;;;;;;;;;;1889687;28;7005;-70
2023/08/21 00:20:20;;;;;;;;;;;;;;;;;;1888716;28;7045;-69
2023/08/21 00:21:18;;;;;;;;;;;;;;;;;;1882047;28;8115;-68
2023/08/21 00:22:16;;;;;;;;;;;;;;;;;;1882083;28;7009;-69
2023/08/21 00:23:13;;;;;;;;;;;;;;;;;;1889811;28;7052;-68
2023/08/21 00:24:11;;;;;;;;;;;;;;;;;;1891286;28;7033;-68
2023/08/21 00:25:08;;;;;;;;;;;;;;;;;;1890470;28;7368;-69
2023/08/21 00:26:05;;;;;;;;;;;;;;;;;;1890001;28;7013;-68
2023/08/21 00:27:03;;;;;;;;;;;;;;;;;;1889845;28;7010;-70
2023/08/21 00:28:01;;;;;;;;;;;;;;;;;;1890043;28;7046;-69
2023/08/21 00:28:58;;;;;;;;;;;;;;;;;;1890563;28;7116;-70
2023/08/21 00:29:55;;;;;;;;;;;;;;;;;;1890796;28;9773;-69
2023/08/21 00:31:00;;;;;;;;;;;;;;;;;;1888818;28;7014;-68
2023/08/21 00:31:57;;;;;;;;;;;;;;;;;;1889959;28;7435;-68
2023/08/21 00:32:54;;;;;;;;;;;;;;;;;;1890558;28;7009;-69
2023/08/21 00:33:52;;;;;;;;;;;;;;;;;;1889377;28;7125;-68
2023/08/21 00:34:49;;;;;;;;;;;;;;;;;;1890127;28;7292;-68
2023/08/21 00:35:47;;;;;;;;;;;;;;;;;;1890061;28;7010;-69
2023/08/21 00:36:44;;;;;;;;;;;;;;;;;;1891819;28;7093;-69
2023/08/21 00:37:42;;;;;;;;;;;;;;;;;;1889206;28;8102;-68
2023/08/21 00:38:40;;;;;;;;;;;;;;;;;;1890375;28;7010;-69
2023/08/21 00:39:37;;;;;;;;;;;;;;;;;;1890260;28;8031;-68
2023/08/21 00:40:34;;;;;;;;;;;;;;;;;;1890244;28;7006;-70
2023/08/21 00:41:34;;;;;;;;;;;;;;;;;;1890358;28;7110;-68
2023/08/21 00:42:31;;;;;;;;;;;;;;;;;;1889444;28;7009;-69
2023/08/21 00:43:28;;;;;;;;;;;;;;;;;;1883046;28;7014;-69
2023/08/21 00:44:26;;;;;;;;;;;;;;;;;;1882275;28;7041;-68
2023/08/21 00:45:23;;;;;;;;;;;;;;;;;;1889084;28;7005;-69
2023/08/21 00:46:21;;;;;;;;;;;;;;;;;;1889422;28;7034;-68
2023/08/21 00:47:19;;;;;;;;;;;;;;;;;;1889802;28;7006;-69
2023/08/21 00:48:17;;;;;;;;;;;;;;;;;;1887755;28;7109;-69
2023/08/21 00:49:15;;;;;;;;;;;;;;;;;;1890755;28;7013;-69
2023/08/21 00:50:12;;;;;;;;;;;;;;;;;;1889664;28;7376;-69
2023/08/21 00:51:12;;;;;;;;;;;;;;;;;;1890379;28;8453;-68
2023/08/21 00:52:12;;;;;;;;;;;;;;;;;;1890332;28;7117;-69
2023/08/21 00:53:10;;;;;;;;;;;;;;;;;;1890097;28;8110;-68
2023/08/21 00:54:08;;;;;;;;;;;;;;;;;;1889795;28;7124;-69
2023/08/21 00:55:06;;;;;;;;;;;;;;;;;;1889988;28;7037;-68
2023/08/21 00:56:03;;;;;;;;;;;;;;;;;;1890012;28;7026;-68
2023/08/21 00:57:01;;;;;;;;;;;;;;;;;;1890889;28;7046;-68
2023/08/21 00:58:00;;;;;;;;;;;;;;;;;;1890596;28;7025;-69
2023/08/21 00:58:58;;;;;;;;;;;;;;;;;;1889910;28;8108;-70
2023/08/21 00:59:55;;;;;;;;;;;;;;;;;;1889591;28;7093;-70
2023/08/21 01:00:53;;;;;;;;;;;;;;;;;;1889906;28;7025;-69
2023/08/21 01:01:51;;;;;;;;;;;;;;;;;;1890053;28;7006;-69
2023/08/21 01:02:48;;;;;;;;;;;;;;;;;;1890815;28;7058;-70
2023/08/21 01:03:46;;;;;;;;;;;;;;;;;;1889233;28;7026;-68
2023/08/21 01:04:43;;;;;;;;;;;;;;;;;;1889945;28;7081;-70
2023/08/21 01:05:41;;;;;;;;;;;;;;;;;;1889355;28;7010;-69
2023/08/21 01:06:38;;;;;;;;;;;;;;;;;;1889854;28;7010;-68
2023/08/21 01:07:44;;;;;;;;;;;;;;;;;;1890336;28;7077;-69
2023/08/21 01:09:00;;;;;;;;;;;;;;;;;;1888898;28;7006;-69
2023/08/21 01:10:09;;;;;;;;;;;;;;;;;;1888440;28;7093;-68
2023/08/21 01:11:12;;;;;;;;;;;;;;;;;;1890343;28;7134;-69
2023/08/21 01:12:22;;;;;;;;;;;;;;;;;;1888940;28;7014;-68
2023/08/21 01:13:32;;;;;;;;;;;;;;;;;;1889552;28;8917;-68
2023/08/21 01:14:48;;;;;;;;;;;;;;;;;;1889701;28;7043;-68
2023/08/21 01:15:47;;;;;;;;;;;;;;;;;;1889956;28;7129;-68
2023/08/21 01:16:47;;;;;;;;;;;;;;;;;;1888276;28;7017;-68
2023/08/21 01:17:46;;;;;;;;;;;;;;;;;;1887590;28;8083;-69
2023/08/21 01:18:45;;;;;;;;;;;;;;;;;;1889436;28;8029;-68
2023/08/21 01:19:43;;;;;;;;;;;;;;;;;;1890012;28;7296;-69
2023/08/21 01:20:41;;;;;;;;;;;;;;;;;;1889646;28;7093;-69
2023/08/21 01:21:39;;;;;;;;;;;;;;;;;;1890579;28;7006;-69
2023/08/21 01:22:38;;;;;;;;;;;;;;;;;;1888986;28;7006;-69
2023/08/21 01:23:37;;;;;;;;;;;;;;;;;;1890460;28;8162;-68
2023/08/21 01:24:34;;;;;;;;;;;;;;;;;;1890062;28;8039;-69
2023/08/21 01:25:32;;;;;;;;;;;;;;;;;;1889255;28;7109;-68
2023/08/21 01:26:30;;;;;;;;;;;;;;;;;;1889195;28;7009;-69
2023/08/21 01:27:27;;;;;;;;;;;;;;;;;;1889373;28;7046;-69
2023/08/21 01:28:25;;;;;;;;;;;;;;;;;;1890519;28;7006;-68
2023/08/21 01:29:23;;;;;;;;;;;;;;;;;;1890233;28;7014;-69
2023/08/21 01:30:20;;;;;;;;;;;;;;;;;;1889374;28;7031;-69
2023/08/21 01:31:31;;;;;;;;;;;;;;;;;;1889927;28;7049;-69
2023/08/21 01:33:07;;;;;;;;;;;;;;;;;;1889620;28;7025;-69
2023/08/21 01:34:08;;;;;;;;;;;;;;;;;;1873828;28;7078;-69
2023/08/21 01:35:07;;;;;;;;;;;;;;;;;;1870256;28;7009;-70
2023/08/21 01:36:05;;;;;;;;;;;;;;;;;;1870487;28;7626;-68
2023/08/21 01:37:03;;;;;;;;;;;;;;;;;;1874163;28;7014;-68
2023/08/21 01:38:01;;;;;;;;;;;;;;;;;;1868619;28;7010;-68
2023/08/21 01:38:59;;;;;;;;;;;;;;;;;;1867542;29;7216;-69
2023/08/21 01:39:59;;;;;;;;;;;;;;;;;;1880189;28;7010;-69
2023/08/21 01:40:58;;;;;;;;;;;;;;;;;;1890563;28;7363;-69
2023/08/21 01:41:57;;;;;;;;;;;;;;;;;;1889348;28;7013;-68
2023/08/21 01:42:54;;;;;;;;;;;;;;;;;;1890186;28;7121;-69
2023/08/21 01:43:52;;;;;;;;;;;;;;;;;;1889496;28;7050;-69
2023/08/21 01:44:49;;;;;;;;;;;;;;;;;;1881675;28;7113;-68
2023/08/21 01:45:47;;;;;;;;;;;;;;;;;;1881475;28;7010;-69
2023/08/21 01:46:44;;;;;;;;;;;;;;;;;;1889052;28;8039;-69
2023/08/21 01:47:42;;;;;;;;;;;;;;;;;;1888788;28;7333;-70
2023/08/21 01:48:39;;;;;;;;;;;;;;;;;;1889521;28;7009;-69
2023/08/21 01:49:37;;;;;;;;;;;;;;;;;;1890343;28;8055;-69
2023/08/21 01:50:34;;;;;;;;;;;;;;;;;;1890021;28;7220;-70
2023/08/21 01:51:32;;;;;;;;;;;;;;;;;;1888866;28;7026;-69
2023/08/21 01:52:29;;;;;;;;;;;;;;;;;;1889636;28;7010;-68
2023/08/21 01:53:26;;;;;;;;;;;;;;;;;;1889524;28;7093;-69
2023/08/21 01:54:24;;;;;;;;;;;;;;;;;;1889701;28;8126;-68
2023/08/21 01:55:21;;;;;;;;;;;;;;;;;;1890363;28;7018;-68
2023/08/21 01:56:19;;;;;;;;;;;;;;;;;;1889436;28;7081;-68
2023/08/21 01:57:16;;;;;;;;;;;;;;;;;;1889416;28;7010;-70
2023/08/21 01:58:13;;;;;;;;;;;;;;;;;;1889145;28;7077;-68
2023/08/21 01:59:11;;;;;;;;;;;;;;;;;;1888879;28;7014;-68
2023/08/21 02:00:08;;;;;;;;;;;;;;;;;;1889691;28;7097;-70
2023/08/21 02:01:06;;;;;;;;;;;;;;;;;;1881548;28;7164;-67
2023/08/21 02:02:03;;;;;;;;;;;;;;;;;;1881882;28;7014;-68
2023/08/21 02:03:01;;;;;;;;;;;;;;;;;;1888649;28;7078;-69
2023/08/21 02:03:58;;;;;;;;;;;;;;;;;;1889802;28;7037;-69
2023/08/21 02:04:56;;;;;;;;;;;;;;;;;;1889890;28;7125;-69
2023/08/21 02:05:56;;;;;;;;;;;;;;;;;;1888360;28;7046;-68
2023/08/21 02:06:54;;;;;;;;;;;;;;;;;;1889509;28;7013;-68
2023/08/21 02:07:52;;;;;;;;;;;;;;;;;;1889571;28;7046;-69
2023/08/21 02:08:49;;;;;;;;;;;;;;;;;;1888276;28;8060;-69
2023/08/21 02:09:46;;;;;;;;;;;;;;;;;;1889134;28;7018;-68
2023/08/21 02:10:51;;;;;;;;;;;;;;;;;;1889784;28;8120;-68
2023/08/21 02:11:48;;;;;;;;;;;;;;;;;;1889931;28;7088;-69
2023/08/21 02:12:45;;;;;;;;;;;;;;;;;;1889208;28;7093;-68
2023/08/21 02:13:43;;;;;;;;;;;;;;;;;;1889430;28;7085;-68
2023/08/21 02:14:40;;;;;;;;;;;;;;;;;;1890049;28;7009;-68
2023/08/21 02:15:38;;;;;;;;;;;;;;;;;;1888507;28;7009;-68
2023/08/21 02:16:35;;;;;;;;;;;;;;;;;;1889650;28;7021;-69
2023/08/21 02:17:33;;;;;;;;;;;;;;;;;;1888946;28;7146;-68
2023/08/21 02:18:30;;;;;;;;;;;;;;;;;;1889077;28;7010;-69
2023/08/21 02:19:28;;;;;;;;;;;;;;;;;;1889293;28;7009;-68
2023/08/21 02:20:25;;;;;;;;;;;;;;;;;;1889595;28;7092;-69
2023/08/21 02:21:23;;;;;;;;;;;;;;;;;;1889499;28;7006;-68
2023/08/21 02:22:21;;;;;;;;;;;;;;;;;;1890141;28;7078;-69
2023/08/21 02:23:18;;;;;;;;;;;;;;;;;;1888764;28;7030;-69
2023/08/21 02:24:16;;;;;;;;;;;;;;;;;;1889618;28;7009;-69
2023/08/21 02:25:13;;;;;;;;;;;;;;;;;;1890263;28;7009;-69
2023/08/21 02:26:11;;;;;;;;;;;;;;;;;;1889700;28;8530;-69
2023/08/21 02:27:08;;;;;;;;;;;;;;;;;;1889812;28;7002;-69
2023/08/21 02:28:06;;;;;;;;;;;;;;;;;;1889787;28;7373;-70
2023/08/21 02:29:03;;;;;;;;;;;;;;;;;;1889911;28;8047;-69
2023/08/21 02:30:01;;;;;;;;;;;;;;;;;;1889557;28;7336;-69
2023/08/21 02:30:58;;;;;;;;;;;;;;;;;;1889636;28;7010;-69
2023/08/21 02:31:56;;;;;;;;;;;;;;;;;;1889693;28;7068;-68
2023/08/21 02:32:54;;;;;;;;;;;;;;;;;;1889846;28;7078;-69
2023/08/21 02:33:51;;;;;;;;;;;;;;;;;;1889388;28;7017;-68
2023/08/21 02:34:49;;;;;;;;;;;;;;;;;;1890289;28;7009;-69
2023/08/21 02:35:46;;;;;;;;;;;;;;;;;;1888470;28;7025;-68
2023/08/21 02:36:44;;;;;;;;;;;;;;;;;;1889636;28;7097;-68
2023/08/21 02:37:41;;;;;;;;;;;;;;;;;;1890136;28;8091;-69
2023/08/21 02:38:39;;;;;;;;;;;;;;;;;;1888407;28;7021;-68
2023/08/21 02:39:36;;;;;;;;;;;;;;;;;;1889542;28;7009;-68
2023/08/21 02:40:33;;;;;;;;;;;;;;;;;;1889246;28;7158;-70
2023/08/21 02:41:31;;;;;;;;;;;;;;;;;;1890051;28;7081;-68
2023/08/21 02:42:28;;;;;;;;;;;;;;;;;;1887778;28;7225;-69
2023/08/21 02:43:26;;;;;;;;;;;;;;;;;;1887712;28;7399;-69
2023/08/21 02:44:23;;;;;;;;;;;;;;;;;;1889080;28;7097;-69
2023/08/21 02:45:21;;;;;;;;;;;;;;;;;;1889982;28;7100;-68
2023/08/21 02:46:18;;;;;;;;;;;;;;;;;;1889030;28;7495;-68
2023/08/21 02:47:15;;;;;;;;;;;;;;;;;;1890215;28;7068;-69
2023/08/21 02:48:13;;;;;;;;;;;;;;;;;;1887833;28;7013;-68
2023/08/21 02:49:10;;;;;;;;;;;;;;;;;;1881310;28;7938;-69
2023/08/21 02:50:08;;;;;;;;;;;;;;;;;;1881284;28;7006;-68
2023/08/21 02:51:06;;;;;;;;;;;;;;;;;;1887779;28;7173;-69
2023/08/21 02:52:03;;;;;;;;;;;;;;;;;;1889983;28;7243;-68
2023/08/21 02:53:01;;;;;;;;;;;;;;;;;;1881437;28;7267;-70
2023/08/21 02:53:58;;;;;;;;;;;;;;;;;;1874265;28;7141;-68
2023/08/21 02:54:56;;;;;;;;;;;;;;;;;;1879871;28;7042;-68
2023/08/21 02:55:53;;;;;;;;;;;;;;;;;;1887320;28;7010;-68
2023/08/21 02:56:50;;;;;;;;;;;;;;;;;;1889009;28;7114;-69
2023/08/21 02:57:48;;;;;;;;;;;;;;;;;;1889729;28;7058;-69
2023/08/21 02:58:45;;;;;;;;;;;;;;;;;;1890034;28;8103;-69
2023/08/21 02:59:43;;;;;;;;;;;;;;;;;;1889254;28;7038;-69
2023/08/21 03:00:40;;;;;;;;;;;;;;;;;;1888992;28;8131;-69
2023/08/21 03:01:38;;;;;;;;;;;;;;;;;;1889418;28;7009;-69
2023/08/21 03:02:35;;;;;;;;;;;;;;;;;;1889346;28;7021;-68
2023/08/21 03:03:35;;;;;;;;;;;;;;;;;;1889196;28;7014;-68
2023/08/21 03:04:33;;;;;;;;;;;;;;;;;;1889052;28;8060;-70
2023/08/21 03:05:30;;;;;;;;;;;;;;;;;;1889520;28;7123;-68
2023/08/21 03:06:28;;;;;;;;;;;;;;;;;;1887832;28;7149;-68
2023/08/21 03:07:25;;;;;;;;;;;;;;;;;;1888483;28;7017;-68
2023/08/21 03:08:22;;;;;;;;;;;;;;;;;;1889229;28;7014;-68
2023/08/21 03:09:20;;;;;;;;;;;;;;;;;;1887844;28;7113;-68
2023/08/21 03:10:17;;;;;;;;;;;;;;;;;;1889333;28;7046;-69
2023/08/21 03:11:14;;;;;;;;;;;;;;;;;;1888018;28;7092;-70
2023/08/21 03:12:12;;;;;;;;;;;;;;;;;;1889776;28;7097;-69
2023/08/21 03:13:09;;;;;;;;;;;;;;;;;;1889222;28;7006;-69
2023/08/21 03:14:08;;;;;;;;;;;;;;;;;;1888740;28;7061;-68
2023/08/21 03:15:05;;;;;;;;;;;;;;;;;;1888717;28;8044;-70
2023/08/21 03:16:03;;;;;;;;;;;;;;;;;;1888608;28;7093;-68
2023/08/21 03:17:00;;;;;;;;;;;;;;;;;;1888540;28;7085;-69
2023/08/21 03:17:59;;;;;;;;;;;;;;;;;;1888447;28;7010;-69
2023/08/21 03:18:58;;;;;;;;;;;;;;;;;;1889519;28;7492;-68
2023/08/21 03:19:55;;;;;;;;;;;;;;;;;;1889127;28;7100;-69
2023/08/21 03:20:53;;;;;;;;;;;;;;;;;;1889317;28;7304;-68
2023/08/21 03:21:51;;;;;;;;;;;;;;;;;;1889366;28;7089;-68
2023/08/21 03:22:48;;;;;;;;;;;;;;;;;;1889857;28;7186;-68
2023/08/21 03:23:46;;;;;;;;;;;;;;;;;;1888991;28;7360;-69
2023/08/21 03:24:43;;;;;;;;;;;;;;;;;;1879757;28;7812;-68
2023/08/21 03:25:41;;;;;;;;;;;;;;;;;;1882344;28;7073;-69
2023/08/21 03:26:38;;;;;;;;;;;;;;;;;;1886438;28;7097;-68
2023/08/21 03:27:39;;;;;;;;;;;;;;;;;;1889634;28;7038;-69
2023/08/21 03:28:37;;;;;;;;;;;;;;;;;;1889701;28;7108;-69
2023/08/21 03:29:34;;;;;;;;;;;;;;;;;;1889375;28;7109;-68
2023/08/21 03:30:32;;;;;;;;;;;;;;;;;;1889509;28;7124;-70
2023/08/21 03:31:30;;;;;;;;;;;;;;;;;;1887420;28;7209;-68
2023/08/21 03:32:27;;;;;;;;;;;;;;;;;;1889495;28;7105;-68
2023/08/21 03:33:25;;;;;;;;;;;;;;;;;;1884460;28;7101;-69
2023/08/21 03:34:22;;;;;;;;;;;;;;;;;;1888069;28;7101;-69
2023/08/21 03:35:20;;;;;;;;;;;;;;;;;;1881560;28;7093;-70
2023/08/21 03:36:17;;;;;;;;;;;;;;;;;;1881871;28;7010;-68
2023/08/21 03:37:15;;;;;;;;;;;;;;;;;;1888174;28;7162;-70
2023/08/21 03:38:12;;;;;;;;;;;;;;;;;;1890030;28;7324;-69
2023/08/21 03:39:09;;;;;;;;;;;;;;;;;;1889707;28;7046;-68
2023/08/21 03:40:07;;;;;;;;;;;;;;;;;;1890105;28;7010;-69
2023/08/21 03:41:05;;;;;;;;;;;;;;;;;;1889350;28;7005;-69
2023/08/21 03:42:02;;;;;;;;;;;;;;;;;;1887631;28;7096;-68
2023/08/21 03:43:00;;;;;;;;;;;;;;;;;;1884845;28;7206;-68
2023/08/21 03:43:58;;;;;;;;;;;;;;;;;;1877462;28;7013;-69
2023/08/21 03:44:55;;;;;;;;;;;;;;;;;;1875925;28;7082;-68
2023/08/21 03:45:52;;;;;;;;;;;;;;;;;;1883777;28;7017;-68
2023/08/21 03:46:50;;;;;;;;;;;;;;;;;;1884941;28;7340;-68
2023/08/21 03:47:47;;;;;;;;;;;;;;;;;;1885748;28;7081;-69
2023/08/21 03:48:45;;;;;;;;;;;;;;;;;;1889442;28;7042;-69
2023/08/21 03:49:42;;;;;;;;;;;;;;;;;;1889498;28;7109;-69
2023/08/21 03:50:40;;;;;;;;;;;;;;;;;;1889082;28;7013;-69
2023/08/21 03:51:37;;;;;;;;;;;;;;;;;;1883649;28;7017;-70
2023/08/21 03:52:34;;;;;;;;;;;;;;;;;;1884936;28;7089;-67
2023/08/21 03:53:33;;;;;;;;;;;;;;;;;;1880827;28;7082;-68
2023/08/21 03:54:31;;;;;;;;;;;;;;;;;;1881682;28;7133;-68
2023/08/21 03:55:28;;;;;;;;;;;;;;;;;;1886945;28;7009;-69
2023/08/21 03:56:25;;;;;;;;;;;;;;;;;;1889494;28;7097;-68
2023/08/21 03:57:23;;;;;;;;;;;;;;;;;;1889490;28;8084;-69
2023/08/21 03:58:20;;;;;;;;;;;;;;;;;;1889317;28;7018;-68
2023/08/21 03:59:17;;;;;;;;;;;;;;;;;;1889255;28;7022;-69
2023/08/21 04:00:16;;;;;;;;;;;;;;;;;;1890115;28;7001;-68
2023/08/21 04:01:13;;;;;;;;;;;;;;;;;;1885583;28;7320;-68
2023/08/21 04:02:11;;;;;;;;;;;;;;;;;;1881726;28;9229;-69
2023/08/21 04:03:08;;;;;;;;;;;;;;;;;;1881724;28;7025;-68
2023/08/21 04:04:05;;;;;;;;;;;;;;;;;;1888209;28;7009;-69
2023/08/21 04:05:03;;;;;;;;;;;;;;;;;;1888852;28;7013;-69
2023/08/21 04:06:01;;;;;;;;;;;;;;;;;;1888124;28;7108;-70
2023/08/21 04:06:58;;;;;;;;;;;;;;;;;;1889594;28;7014;-68
2023/08/21 04:07:56;;;;;;;;;;;;;;;;;;1889301;28;8119;-70
2023/08/21 04:08:53;;;;;;;;;;;;;;;;;;1889338;28;7010;-69
2023/08/21 04:09:50;;;;;;;;;;;;;;;;;;1888613;28;7005;-68
2023/08/21 04:10:48;;;;;;;;;;;;;;;;;;1888550;28;7021;-69
2023/08/21 04:11:45;;;;;;;;;;;;;;;;;;1888917;28;8037;-68
2023/08/21 04:12:43;;;;;;;;;;;;;;;;;;1889493;28;7117;-69
2023/08/21 04:13:40;;;;;;;;;;;;;;;;;;1881676;28;7576;-70
2023/08/21 04:14:37;;;;;;;;;;;;;;;;;;1882305;28;7005;-68
2023/08/21 04:15:35;;;;;;;;;;;;;;;;;;1888989;28;8309;-68
2023/08/21 04:16:32;;;;;;;;;;;;;;;;;;1889224;28;7002;-68
2023/08/21 04:17:29;;;;;;;;;;;;;;;;;;1889218;28;7106;-69
2023/08/21 04:18:27;;;;;;;;;;;;;;;;;;1887947;28;7010;-69
2023/08/21 04:19:40;;;;;;;;;;;;;;;;;;1889807;28;7426;-69
2023/08/21 04:20:38;;;;;;;;;;;;;;;;;;1889934;28;7944;-68
2023/08/21 04:21:35;;;;;;;;;;;;;;;;;;1889023;28;7069;-68
2023/08/21 04:22:33;;;;;;;;;;;;;;;;;;1890685;28;7156;-68
2023/08/21 04:23:30;;;;;;;;;;;;;;;;;;1890663;28;7045;-69
2023/08/21 04:24:27;;;;;;;;;;;;;;;;;;1891135;28;7013;-68
2023/08/21 04:25:25;;;;;;;;;;;;;;;;;;1882994;28;7082;-68
2023/08/21 04:26:22;;;;;;;;;;;;;;;;;;1875266;28;7374;-69
2023/08/21 04:27:20;;;;;;;;;;;;;;;;;;1881753;28;7010;-69
2023/08/21 04:28:17;;;;;;;;;;;;;;;;;;1889841;28;7089;-69
2023/08/21 04:29:14;;;;;;;;;;;;;;;;;;1891333;28;7077;-69
2023/08/21 04:30:12;;;;;;;;;;;;;;;;;;1891441;28;7046;-68
2023/08/21 04:31:09;;;;;;;;;;;;;;;;;;1890714;28;7073;-69
2023/08/21 04:32:07;;;;;;;;;;;;;;;;;;1890649;28;7010;-69
2023/08/21 04:33:05;;;;;;;;;;;;;;;;;;1890899;28;7093;-69
2023/08/21 04:34:03;;;;;;;;;;;;;;;;;;1890514;28;7030;-68
2023/08/21 04:35:01;;;;;;;;;;;;;;;;;;1891353;28;7006;-70
2023/08/21 04:35:59;;;;;;;;;;;;;;;;;;1891370;28;7006;-69
2023/08/21 04:36:56;;;;;;;;;;;;;;;;;;1890004;28;8343;-68
2023/08/21 04:37:53;;;;;;;;;;;;;;;;;;1890923;28;7097;-69
2023/08/21 04:38:51;;;;;;;;;;;;;;;;;;1889420;28;8023;-68
2023/08/21 04:39:54;;;;;;;;;;;;;;;;;;1891454;28;8047;-69
2023/08/21 04:40:52;;;;;;;;;;;;;;;;;;1890649;28;7136;-68
2023/08/21 04:41:49;;;;;;;;;;;;;;;;;;1890919;28;7077;-69
2023/08/21 04:42:47;;;;;;;;;;;;;;;;;;1890984;28;7010;-68
2023/08/21 04:43:45;;;;;;;;;;;;;;;;;;1891026;28;7033;-68
2023/08/21 04:44:42;;;;;;;;;;;;;;;;;;1889977;28;7006;-68
2023/08/21 04:45:46;;;;;;;;;;;;;;;;;;1890886;28;7013;-68
2023/08/21 04:46:48;;;;;;;;;;;;;;;;;;1890069;28;7093;-68
2023/08/21 04:47:45;;;;;;;;;;;;;;;;;;1882049;28;7805;-69
2023/08/21 04:48:43;;;;;;;;;;;;;;;;;;1882142;28;7018;-69
2023/08/21 04:49:40;;;;;;;;;;;;;;;;;;1889503;28;7009;-68
2023/08/21 04:50:37;;;;;;;;;;;;;;;;;;1890469;28;7160;-68
2023/08/21 04:51:35;;;;;;;;;;;;;;;;;;1891198;28;8047;-69
2023/08/21 04:52:32;;;;;;;;;;;;;;;;;;1890596;28;7096;-68
2023/08/21 04:53:30;;;;;;;;;;;;;;;;;;1890507;28;8103;-70
2023/08/21 04:54:27;;;;;;;;;;;;;;;;;;1890586;28;7006;-68
2023/08/21 04:55:25;;;;;;;;;;;;;;;;;;1890134;28;7013;-68
2023/08/21 04:56:22;;;;;;;;;;;;;;;;;;1890016;28;7352;-70
2023/08/21 04:57:21;;;;;;;;;;;;;;;;;;1890143;28;8039;-69
2023/08/21 04:58:18;;;;;;;;;;;;;;;;;;1890393;28;7042;-68
2023/08/21 04:59:15;;;;;;;;;;;;;;;;;;1890202;28;7153;-69
2023/08/21 05:00:13;;;;;;;;;;;;;;;;;;1889967;28;7031;-69
2023/08/21 05:01:10;;;;;;;;;;;;;;;;;;1889135;28;7014;-69
2023/08/21 05:02:08;;;;;;;;;;;;;;;;;;1890287;28;7073;-68
2023/08/21 05:03:06;;;;;;;;;;;;;;;;;;1882161;28;7010;-69
2023/08/21 05:04:03;;;;;;;;;;;;;;;;;;1880729;28;7013;-68
2023/08/21 05:05:01;;;;;;;;;;;;;;;;;;1889578;28;7029;-68
2023/08/21 05:05:58;;;;;;;;;;;;;;;;;;1889562;28;7034;-68
2023/08/21 05:06:55;;;;;;;;;;;;;;;;;;1889818;28;8003;-69
2023/08/21 05:07:53;;;;;;;;;;;;;;;;;;1890078;28;8055;-68
2023/08/21 05:08:50;;;;;;;;;;;;;;;;;;1889826;28;7104;-68
2023/08/21 05:09:48;;;;;;;;;;;;;;;;;;1882593;28;8066;-68
2023/08/21 05:10:45;;;;;;;;;;;;;;;;;;1882447;28;7037;-69
2023/08/21 05:11:43;;;;;;;;;;;;;;;;;;1889844;28;7332;-69
2023/08/21 05:12:40;;;;;;;;;;;;;;;;;;1890373;28;7120;-68
2023/08/21 05:13:38;;;;;;;;;;;;;;;;;;1890692;28;7274;-68
2023/08/21 05:14:36;;;;;;;;;;;;;;;;;;1890097;28;7030;-69
2023/08/21 05:15:34;;;;;;;;;;;;;;;;;;1890463;28;7070;-70
2023/08/21 05:16:31;;;;;;;;;;;;;;;;;;1890213;28;7108;-68
2023/08/21 05:17:30;;;;;;;;;;;;;;;;;;1890567;28;7005;-69
2023/08/21 05:18:28;;;;;;;;;;;;;;;;;;1889879;28;7006;-69
2023/08/21 05:19:26;;;;;;;;;;;;;;;;;;1889369;28;7021;-69
2023/08/21 05:20:25;;;;;;;;;;;;;;;;;;1890561;28;8020;-69
2023/08/21 05:21:22;;;;;;;;;;;;;;;;;;1888843;28;7014;-68
2023/08/21 05:22:20;;;;;;;;;;;;;;;;;;1889866;28;7002;-68
2023/08/21 05:23:17;;;;;;;;;;;;;;;;;;1890211;28;7009;-69
2023/08/21 05:24:14;;;;;;;;;;;;;;;;;;1889839;28;7009;-68
2023/08/21 05:25:12;;;;;;;;;;;;;;;;;;1891129;28;7097;-69
2023/08/21 05:26:09;;;;;;;;;;;;;;;;;;1883102;28;7045;-69
2023/08/21 05:27:07;;;;;;;;;;;;;;;;;;1882518;28;7050;-69
2023/08/21 05:28:05;;;;;;;;;;;;;;;;;;1889104;28;8120;-68
2023/08/21 05:29:03;;;;;;;;;;;;;;;;;;1889975;28;7014;-68
2023/08/21 05:30:00;;;;;;;;;;;;;;;;;;1890477;28;7101;-68
2023/08/21 05:30:58;;;;;;;;;;;;;;;;;;1889903;28;7157;-69
2023/08/21 05:31:55;;;;;;;;;;;;;;;;;;1890576;28;7117;-69
2023/08/21 05:32:53;;;;;;;;;;;;;;;;;;1890694;28;7018;-69
2023/08/21 05:33:50;;;;;;;;;;;;;;;;;;1888404;28;7038;-69
2023/08/21 05:34:48;;;;;;;;;;;;;;;;;;1888567;28;7042;-69
2023/08/21 05:35:45;;;;;;;;;;;;;;;;;;1890189;28;7021;-69
2023/08/21 05:36:42;;;;;;;;;;;;;;;;;;1890019;28;7018;-68
2023/08/21 05:37:40;;;;;;;;;;;;;;;;;;1889843;28;7033;-70
2023/08/21 05:38:37;;;;;;;;;;;;;;;;;;1882283;28;7885;-68
2023/08/21 05:39:35;;;;;;;;;;;;;;;;;;1882626;28;7347;-68
2023/08/21 05:40:32;;;;;;;;;;;;;;;;;;1889075;28;7332;-69
2023/08/21 05:41:29;;;;;;;;;;;;;;;;;;1888991;28;7018;-68
2023/08/21 05:42:27;;;;;;;;;;;;;;;;;;1888276;28;7013;-69
2023/08/21 05:43:24;;;;;;;;;;;;;;;;;;1889467;28;7013;-69
2023/08/21 05:44:22;;;;;;;;;;;;;;;;;;1889897;28;8662;-69
2023/08/21 05:45:19;;;;;;;;;;;;;;;;;;1890620;28;7316;-69
2023/08/21 05:46:17;;;;;;;;;;;;;;;;;;1890850;28;7014;-69
2023/08/21 05:47:14;;;;;;;;;;;;;;;;;;1890349;28;7096;-69
2023/08/21 05:48:11;;;;;;;;;;;;;;;;;;1889173;28;7376;-69
2023/08/21 05:49:09;;;;;;;;;;;;;;;;;;1890230;28;7042;-69
2023/08/21 05:50:07;;;;;;;;;;;;;;;;;;1889836;28;7017;-68
2023/08/21 05:51:05;;;;;;;;;;;;;;;;;;1890325;28;7009;-68
2023/08/21 05:52:02;;;;;;;;;;;;;;;;;;1890589;28;7141;-69
2023/08/21 05:53:01;;;;;;;;;;;;;;;;;;1890154;28;7017;-68
2023/08/21 05:53:59;;;;;;;;;;;;;;;;;;1888998;28;7030;-68
2023/08/21 05:54:56;;;;;;;;;;;;;;;;;;1889072;28;7151;-69
2023/08/21 05:55:54;;;;;;;;;;;;;;;;;;1890312;28;7018;-68
2023/08/21 05:56:51;;;;;;;;;;;;;;;;;;1890065;28;7013;-69
2023/08/21 05:57:49;;;;;;;;;;;;;;;;;;1889998;28;7306;-70
2023/08/21 05:58:46;;;;;;;;;;;;;;;;;;1890344;28;7010;-69
2023/08/21 05:59:47;;;;;;;;;;;;;;;;;;1890367;28;7092;-69
2023/08/21 06:00:44;;;;;;;;;;;;;;;;;;1890243;28;7149;-70
2023/08/21 06:01:42;;;;;;;;;;;;;;;;;;1889783;28;8035;-69
2023/08/21 06:02:39;;;;;;;;;;;;;;;;;;1882052;28;7092;-69
2023/08/21 06:03:37;;;;;;;;;;;;;;;;;;1882192;28;7005;-68
2023/08/21 06:04:35;;;;;;;;;;;;;;;;;;1888037;28;7139;-69
2023/08/21 06:05:32;;;;;;;;;;;;;;;;;;1889871;28;7009;-68
2023/08/21 06:06:29;;;;;;;;;;;;;;;;;;1890414;28;7096;-68
2023/08/21 06:07:27;;;;;;;;;;;;;;;;;;1890471;28;7022;-69
2023/08/21 06:08:24;;;;;;;;;;;;;;;;;;1879866;28;8159;-69
2023/08/21 06:09:22;;;;;;;;;;;;;;;;;;1882192;28;7022;-69
2023/08/21 06:10:19;;;;;;;;;;;;;;;;;;1889260;28;7043;-69
2023/08/21 06:11:17;;;;;;;;;;;;;;;;;;1889958;28;7018;-70
2023/08/21 06:12:15;;;;;;;;;;;;;;;;;;1890435;28;7096;-69
2023/08/21 06:13:12;;;;;;;;;;;;;;;;;;1889339;28;7336;-69
2023/08/21 06:14:10;;;;;;;;;;;;;;;;;;1890534;28;7175;-69
2023/08/21 06:15:10;;;;;;;;;;;;;;;;;;1889996;28;8047;-68
2023/08/21 06:16:08;;;;;;;;;;;;;;;;;;1889732;28;7096;-69
2023/08/21 06:17:06;;;;;;;;;;;;;;;;;;1889855;28;7146;-69
2023/08/21 06:18:04;;;;;;;;;;;;;;;;;;1890096;28;7010;-68
2023/08/21 06:19:01;;;;;;;;;;;;;;;;;;1888521;28;7088;-70
2023/08/21 06:19:59;;;;;;;;;;;;;;;;;;1890134;28;7046;-69
2023/08/21 06:20:56;;;;;;;;;;;;;;;;;;1890613;28;7042;-69
2023/08/21 06:21:57;;;;;;;;;;;;;;;;;;1889942;28;8074;-69
2023/08/21 06:22:55;;;;;;;;;;;;;;;;;;1889871;28;8059;-69
2023/08/21 06:23:52;;;;;;;;;;;;;;;;;;1889645;28;7005;-68
2023/08/21 06:24:49;;;;;;;;;;;;;;;;;;1890107;28;7010;-69
2023/08/21 06:25:47;;;;;;;;;;;;;;;;;;1889999;28;7006;-68
2023/08/21 06:26:45;;;;;;;;;;;;;;;;;;1889149;28;7041;-69
2023/08/21 06:27:42;;;;;;;;;;;;;;;;;;1890816;28;7117;-69
2023/08/21 06:28:54;;;;;;;;;;;;;;;;;;1890240;28;7010;-69
2023/08/21 06:29:51;;;;;;;;;;;;;;;;;;1890671;28;7577;-69
2023/08/21 06:30:55;;;;;;;;;;;;;;;;;;1890151;28;7018;-69
2023/08/21 06:31:53;;;;;;;;;;;;;;;;;;1890223;28;7387;-69
2023/08/21 06:32:50;;;;;;;;;;;;;;;;;;1889988;28;7105;-68
2023/08/21 06:33:47;;;;;;;;;;;;;;;;;;1880880;28;8979;-69
2023/08/21 06:34:45;;;;;;;;;;;;;;;;;;1881152;28;7356;-69
2023/08/21 06:35:42;;;;;;;;;;;;;;;;;;1889003;28;7054;-69
2023/08/21 06:36:40;;;;;;;;;;;;;;;;;;1889396;28;7013;-69
2023/08/21 06:37:37;;;;;;;;;;;;;;;;;;1890151;28;7041;-69
2023/08/21 06:38:34;;;;;;;;;;;;;;;;;;1889784;28;7100;-69
2023/08/21 06:39:34;;;;;;;;;;;;;;;;;;1890282;28;7042;-70
2023/08/21 06:40:31;;;;;;;;;;;;;;;;;;1889886;28;7009;-69
2023/08/21 06:41:29;;;;;;;;;;;;;;;;;;1890298;28;8036;-70
2023/08/21 06:42:26;;;;;;;;;;;;;;;;;;1889789;28;7105;-69
2023/08/21 06:43:24;;;;;;;;;;;;;;;;;;1890258;28;7046;-69